Time;durP1;ratioP1;P1;durP2;ratioP2;P2;SDS_P1;SDS_P2;PMS_P1;PMS_P2;Temp;Humidity;BMP_temperature;BMP_pressure;BME280_temperature;BME280_humidity;BME280_pressure;Samples;Min_cycle;Max_cycle;Signal;HPM_P1;HPM_P2
2022/04/15 00:02:18;;;;;;;;;;;;;;;;;;5115499;28;19994;-74
2022/04/15 00:04:44;;;;;;;;;;;;;;;;;;5097222;28;19912;-74
2022/04/15 00:07:10;;;;;;;;;;;;;;;;;;5096791;28;19923;-74
2022/04/15 00:09:36;;;;;;;;;;;;;;;;;;5097175;28;19924;-73
2022/04/15 00:12:07;;;;;;;;;;;;;;;;;;5115542;28;19912;-73
2022/04/15 00:14:32;;;;;;;;;;;;;;;;;;5115313;28;19965;-73
2022/04/15 00:16:58;;;;;;;;;;;;;;;;;;5115501;28;19916;-74
2022/04/15 00:19:24;;;;;;;;;;;;;;;;;;5115221;28;20446;-73
2022/04/15 00:21:50;;;;;;;;;;;;;;;;;;5096791;28;19912;-74
2022/04/15 00:24:16;;;;;;;;;;;;;;;;;;5096927;28;20360;-73
2022/04/15 00:26:42;;;;;;;;;;;;;;;;;;5114985;28;19969;-73
2022/04/15 00:29:08;;;;;;;;;;;;;;;;;;5114997;28;19915;-73
2022/04/15 00:31:34;;;;;;;;;;;;;;;;;;5114979;28;20018;-73
2022/04/15 00:34:00;;;;;;;;;;;;;;;;;;5115166;28;19919;-73
2022/04/15 00:36:25;;;;;;;;;;;;;;;;;;5114865;28;19916;-73
2022/04/15 00:38:51;;;;;;;;;;;;;;;;;;5114727;28;19918;-73
2022/04/15 00:41:17;;;;;;;;;;;;;;;;;;5114670;28;19912;-73
2022/04/15 00:43:43;;;;;;;;;;;;;;;;;;5114754;28;19915;-73
2022/04/15 00:46:09;;;;;;;;;;;;;;;;;;5114632;28;20002;-73
2022/04/15 00:48:38;;;;;;;;;;;;;;;;;;5114488;28;20000;-73
2022/04/15 00:51:04;;;;;;;;;;;;;;;;;;5096140;28;19918;-74
2022/04/15 00:53:31;;;;;;;;;;;;;;;;;;5096170;28;19994;-73
2022/04/15 00:55:57;;;;;;;;;;;;;;;;;;5095035;28;19908;-74
2022/04/15 00:58:23;;;;;;;;;;;;;;;;;;5096002;28;19942;-73
2022/04/15 01:00:49;;;;;;;;;;;;;;;;;;5096108;28;19904;-74
2022/04/15 01:03:21;;;;;;;;;;;;;;;;;;5095857;28;20002;-73
2022/04/15 01:05:46;;;;;;;;;;;;;;;;;;5095946;28;19908;-74
2022/04/15 01:08:12;;;;;;;;;;;;;;;;;;5095500;28;20121;-74
2022/04/15 01:10:38;;;;;;;;;;;;;;;;;;5114197;28;19916;-74
2022/04/15 01:13:04;;;;;;;;;;;;;;;;;;5095975;28;20407;-74
2022/04/15 01:15:30;;;;;;;;;;;;;;;;;;5095784;28;20014;-73
2022/04/15 01:17:56;;;;;;;;;;;;;;;;;;5113978;28;19935;-76
2022/04/15 01:20:22;;;;;;;;;;;;;;;;;;5114109;28;19912;-73
2022/04/15 01:22:48;;;;;;;;;;;;;;;;;;5113932;28;19923;-74
2022/04/15 01:25:14;;;;;;;;;;;;;;;;;;5095797;28;19912;-74
2022/04/15 01:27:40;;;;;;;;;;;;;;;;;;5114093;28;20005;-73
2022/04/15 01:30:06;;;;;;;;;;;;;;;;;;5113818;28;19920;-74
2022/04/15 01:32:32;;;;;;;;;;;;;;;;;;5095498;28;20302;-74
2022/04/15 01:34:57;;;;;;;;;;;;;;;;;;5095373;28;19926;-74
2022/04/15 01:37:23;;;;;;;;;;;;;;;;;;5113932;28;19915;-73
2022/04/15 01:39:49;;;;;;;;;;;;;;;;;;5113678;28;20271;-73
2022/04/15 01:42:15;;;;;;;;;;;;;;;;;;5113858;28;20548;-74
2022/04/15 01:44:41;;;;;;;;;;;;;;;;;;5095297;28;19912;-74
2022/04/15 01:47:07;;;;;;;;;;;;;;;;;;5095267;28;19954;-73
2022/04/15 01:49:33;;;;;;;;;;;;;;;;;;5095382;28;19964;-74
2022/04/15 01:51:59;;;;;;;;;;;;;;;;;;5095148;28;19916;-74
2022/04/15 01:54:27;;;;;;;;;;;;;;;;;;5113324;28;19912;-74
2022/04/15 01:56:53;;;;;;;;;;;;;;;;;;5095157;28;19919;-73
2022/04/15 01:59:19;;;;;;;;;;;;;;;;;;5094956;28;19912;-74
2022/04/15 02:01:45;;;;;;;;;;;;;;;;;;5095020;28;19912;-73
2022/04/15 02:04:11;;;;;;;;;;;;;;;;;;5095045;28;20020;-74
2022/04/15 02:06:37;;;;;;;;;;;;;;;;;;5113217;28;19912;-74
2022/04/15 02:09:03;;;;;;;;;;;;;;;;;;5112694;28;19973;-74
2022/04/15 02:11:29;;;;;;;;;;;;;;;;;;5113019;28;20042;-74
2022/04/15 02:13:57;;;;;;;;;;;;;;;;;;5112406;28;21540;-73
2022/04/15 02:16:22;;;;;;;;;;;;;;;;;;5094612;28;19947;-74
2022/04/15 02:18:48;;;;;;;;;;;;;;;;;;5112811;28;20082;-74
2022/04/15 02:21:14;;;;;;;;;;;;;;;;;;5094681;28;19915;-74
2022/04/15 02:23:40;;;;;;;;;;;;;;;;;;5094426;28;19908;-74
2022/04/15 02:26:06;;;;;;;;;;;;;;;;;;5094357;28;19918;-73
2022/04/15 02:28:32;;;;;;;;;;;;;;;;;;5112619;28;19939;-74
2022/04/15 02:30:58;;;;;;;;;;;;;;;;;;5107881;28;20018;-74
2022/04/15 02:33:24;;;;;;;;;;;;;;;;;;5101081;28;19916;-74
2022/04/15 02:35:49;;;;;;;;;;;;;;;;;;5092231;28;20283;-74
2022/04/15 02:38:16;;;;;;;;;;;;;;;;;;5092354;28;19923;-73
2022/04/15 02:40:41;;;;;;;;;;;;;;;;;;5073905;28;20317;-74
2022/04/15 02:43:08;;;;;;;;;;;;;;;;;;5092734;28;19909;-74
2022/04/15 02:45:34;;;;;;;;;;;;;;;;;;5073949;28;20410;-73
2022/04/15 02:48:00;;;;;;;;;;;;;;;;;;5092646;28;19908;-74
2022/04/15 02:50:25;;;;;;;;;;;;;;;;;;5091820;28;19920;-74
2022/04/15 02:52:51;;;;;;;;;;;;;;;;;;5073811;28;19908;-73
2022/04/15 02:55:17;;;;;;;;;;;;;;;;;;5091930;28;20287;-73
2022/04/15 02:57:43;;;;;;;;;;;;;;;;;;5092455;28;19958;-74
2022/04/15 03:00:09;;;;;;;;;;;;;;;;;;5092026;28;19916;-74
2022/04/15 03:02:35;;;;;;;;;;;;;;;;;;5073759;28;20003;-74
2022/04/15 03:05:01;;;;;;;;;;;;;;;;;;5073525;28;19920;-73
2022/04/15 03:07:27;;;;;;;;;;;;;;;;;;5091756;28;19926;-74
2022/04/15 03:09:53;;;;;;;;;;;;;;;;;;5091537;28;19966;-74
2022/04/15 03:12:18;;;;;;;;;;;;;;;;;;5091972;28;20364;-74
2022/04/15 03:14:44;;;;;;;;;;;;;;;;;;5091615;28;20007;-74
2022/04/15 03:17:12;;;;;;;;;;;;;;;;;;5091854;28;19970;-75
2022/04/15 03:19:37;;;;;;;;;;;;;;;;;;5090912;28;19912;-74
2022/04/15 03:22:04;;;;;;;;;;;;;;;;;;5091764;28;20362;-74
2022/04/15 03:24:30;;;;;;;;;;;;;;;;;;5091547;28;19938;-74
2022/04/15 03:26:56;;;;;;;;;;;;;;;;;;5073400;28;20474;-74
2022/04/15 03:29:22;;;;;;;;;;;;;;;;;;5073329;28;19927;-74
2022/04/15 03:31:48;;;;;;;;;;;;;;;;;;5073620;28;20317;-74
2022/04/15 03:34:14;;;;;;;;;;;;;;;;;;5073360;28;19923;-74
2022/04/15 03:36:40;;;;;;;;;;;;;;;;;;5091570;28;20025;-74
2022/04/15 03:39:06;;;;;;;;;;;;;;;;;;5091306;28;19948;-74
2022/04/15 03:41:32;;;;;;;;;;;;;;;;;;5073357;28;19908;-75
2022/04/15 03:43:59;;;;;;;;;;;;;;;;;;5091440;28;19920;-74
2022/04/15 03:46:25;;;;;;;;;;;;;;;;;;5073130;28;19914;-74
2022/04/15 03:48:51;;;;;;;;;;;;;;;;;;5091359;28;19916;-74
2022/04/15 03:51:17;;;;;;;;;;;;;;;;;;5072907;28;19919;-73
2022/04/15 03:53:43;;;;;;;;;;;;;;;;;;5073094;28;19963;-74
2022/04/15 03:56:09;;;;;;;;;;;;;;;;;;5091088;28;19908;-74
2022/04/15 03:58:35;;;;;;;;;;;;;;;;;;5091276;28;19974;-74
2022/04/15 04:01:01;;;;;;;;;;;;;;;;;;5072930;28;19915;-74
2022/04/15 04:03:27;;;;;;;;;;;;;;;;;;5091137;28;19916;-75
2022/04/15 04:05:52;;;;;;;;;;;;;;;;;;5072978;28;20405;-74
2022/04/15 04:08:18;;;;;;;;;;;;;;;;;;5090866;28;19935;-74
2022/04/15 04:10:44;;;;;;;;;;;;;;;;;;5090937;28;19959;-74
2022/04/15 04:13:10;;;;;;;;;;;;;;;;;;5072882;28;20323;-74
2022/04/15 04:15:36;;;;;;;;;;;;;;;;;;5072586;28;19987;-73
2022/04/15 04:18:02;;;;;;;;;;;;;;;;;;5072798;28;20291;-73
2022/04/15 04:20:28;;;;;;;;;;;;;;;;;;5090858;28;20422;-73
2022/04/15 04:22:54;;;;;;;;;;;;;;;;;;5090877;28;19912;-73
2022/04/15 04:25:20;;;;;;;;;;;;;;;;;;5091164;28;19914;-74
2022/04/15 04:27:45;;;;;;;;;;;;;;;;;;5091257;28;20254;-73
2022/04/15 04:30:12;;;;;;;;;;;;;;;;;;5073475;28;20271;-73
2022/04/15 04:32:38;;;;;;;;;;;;;;;;;;5094925;28;19916;-73
2022/04/15 04:35:04;;;;;;;;;;;;;;;;;;5094558;28;19918;-72
2022/04/15 04:37:30;;;;;;;;;;;;;;;;;;5094949;28;19913;-73
2022/04/15 04:39:56;;;;;;;;;;;;;;;;;;5094655;28;19922;-73
2022/04/15 04:42:22;;;;;;;;;;;;;;;;;;5094752;28;20317;-72
2022/04/15 04:44:48;;;;;;;;;;;;;;;;;;5094368;28;19920;-73
2022/04/15 04:47:13;;;;;;;;;;;;;;;;;;5094504;28;20240;-73
2022/04/15 04:49:39;;;;;;;;;;;;;;;;;;5094151;28;19948;-73
2022/04/15 04:52:05;;;;;;;;;;;;;;;;;;5093985;28;20390;-74
2022/04/15 04:54:31;;;;;;;;;;;;;;;;;;5075871;28;19913;-72
2022/04/15 04:56:57;;;;;;;;;;;;;;;;;;5094198;28;19955;-72
2022/04/15 04:59:25;;;;;;;;;;;;;;;;;;5075938;28;20387;-73
2022/04/15 05:01:51;;;;;;;;;;;;;;;;;;5094060;28;19920;-73
2022/04/15 05:04:16;;;;;;;;;;;;;;;;;;5094012;28;20351;-72
2022/04/15 05:06:42;;;;;;;;;;;;;;;;;;5093845;28;20043;-73
2022/04/15 05:09:08;;;;;;;;;;;;;;;;;;5075622;28;20240;-73
2022/04/15 05:11:34;;;;;;;;;;;;;;;;;;5075510;28;20310;-73
2022/04/15 05:14:00;;;;;;;;;;;;;;;;;;5094123;28;19918;-74
2022/04/15 05:16:26;;;;;;;;;;;;;;;;;;5093744;28;20344;-72
2022/04/15 05:18:52;;;;;;;;;;;;;;;;;;5075525;28;19982;-72
2022/04/15 05:21:18;;;;;;;;;;;;;;;;;;5093598;28;19970;-73
2022/04/15 05:23:45;;;;;;;;;;;;;;;;;;5093787;28;19934;-74
2022/04/15 05:26:11;;;;;;;;;;;;;;;;;;5093471;28;20340;-73
2022/04/15 05:28:38;;;;;;;;;;;;;;;;;;5075388;28;19982;-73
2022/04/15 05:31:04;;;;;;;;;;;;;;;;;;5093419;28;19965;-73
2022/04/15 05:33:30;;;;;;;;;;;;;;;;;;5093321;28;19920;-73
2022/04/15 05:35:56;;;;;;;;;;;;;;;;;;5093283;28;19904;-73
2022/04/15 05:38:22;;;;;;;;;;;;;;;;;;5074900;28;19912;-73
2022/04/15 05:40:47;;;;;;;;;;;;;;;;;;5093130;28;20319;-74
2022/04/15 05:43:13;;;;;;;;;;;;;;;;;;5074493;28;19920;-76
2022/04/15 05:45:39;;;;;;;;;;;;;;;;;;5074906;28;20167;-74
2022/04/15 05:48:05;;;;;;;;;;;;;;;;;;5092910;28;19923;-74
2022/04/15 05:50:31;;;;;;;;;;;;;;;;;;5092924;28;19916;-74
2022/04/15 05:52:57;;;;;;;;;;;;;;;;;;5093366;28;20016;-73
2022/04/15 05:55:23;;;;;;;;;;;;;;;;;;5092918;28;19912;-73
2022/04/15 05:57:49;;;;;;;;;;;;;;;;;;5093312;28;20355;-73
2022/04/15 06:00:15;;;;;;;;;;;;;;;;;;5074589;28;20016;-73
2022/04/15 06:02:40;;;;;;;;;;;;;;;;;;5093068;28;20418;-74
2022/04/15 06:05:06;;;;;;;;;;;;;;;;;;5092741;28;19995;-74
2022/04/15 06:07:32;;;;;;;;;;;;;;;;;;5092474;28;19926;-74
2022/04/15 06:09:58;;;;;;;;;;;;;;;;;;5092473;28;20291;-74
2022/04/15 06:12:25;;;;;;;;;;;;;;;;;;5092613;28;19991;-75
2022/04/15 06:14:53;;;;;;;;;;;;;;;;;;5074309;28;19916;-74
2022/04/15 06:17:22;;;;;;;;;;;;;;;;;;5074097;28;20280;-73
2022/04/15 06:19:48;;;;;;;;;;;;;;;;;;5074398;28;19913;-73
2022/04/15 06:22:14;;;;;;;;;;;;;;;;;;5092934;28;20489;-73
2022/04/15 06:24:39;;;;;;;;;;;;;;;;;;5074180;28;20344;-73
2022/04/15 06:27:05;;;;;;;;;;;;;;;;;;5092644;28;19970;-74
2022/04/15 06:29:31;;;;;;;;;;;;;;;;;;5074020;28;20264;-72
2022/04/15 06:31:57;;;;;;;;;;;;;;;;;;5092333;28;19912;-72
2022/04/15 06:34:23;;;;;;;;;;;;;;;;;;5074015;28;20416;-72
2022/04/15 06:36:49;;;;;;;;;;;;;;;;;;5073949;28;20256;-72
2022/04/15 06:39:15;;;;;;;;;;;;;;;;;;5092037;28;19919;-72
2022/04/15 06:41:44;;;;;;;;;;;;;;;;;;5073998;28;20003;-73
2022/04/15 06:44:10;;;;;;;;;;;;;;;;;;5074181;28;19920;-73
2022/04/15 06:46:36;;;;;;;;;;;;;;;;;;5092151;28;19912;-73
2022/04/15 06:49:02;;;;;;;;;;;;;;;;;;5091943;28;19922;-73
2022/04/15 06:51:28;;;;;;;;;;;;;;;;;;5091844;28;20373;-74
2022/04/15 06:53:54;;;;;;;;;;;;;;;;;;5091052;28;20199;-74
2022/04/15 06:56:20;;;;;;;;;;;;;;;;;;5092070;28;20058;-75
2022/04/15 06:58:46;;;;;;;;;;;;;;;;;;5091947;28;19912;-75
2022/04/15 07:01:12;;;;;;;;;;;;;;;;;;5073690;28;20053;-74
2022/04/15 07:03:39;;;;;;;;;;;;;;;;;;5091696;28;19912;-73
2022/04/15 07:06:05;;;;;;;;;;;;;;;;;;5073808;28;19912;-73
2022/04/15 07:08:30;;;;;;;;;;;;;;;;;;5073116;28;19930;-74
2022/04/15 07:10:56;;;;;;;;;;;;;;;;;;5091459;28;19912;-74
2022/04/15 07:13:22;;;;;;;;;;;;;;;;;;5091545;28;19919;-75
2022/04/15 07:15:50;;;;;;;;;;;;;;;;;;5073432;28;19911;-75
2022/04/15 07:18:16;;;;;;;;;;;;;;;;;;5073491;28;19912;-75
2022/04/15 07:20:43;;;;;;;;;;;;;;;;;;5091593;28;19911;-73
2022/04/15 07:23:09;;;;;;;;;;;;;;;;;;5073559;28;19966;-73
2022/04/15 07:25:35;;;;;;;;;;;;;;;;;;5091454;28;19958;-73
2022/04/15 07:28:01;;;;;;;;;;;;;;;;;;5073444;28;20029;-73
2022/04/15 07:30:27;;;;;;;;;;;;;;;;;;5073154;28;19923;-74
2022/04/15 07:32:53;;;;;;;;;;;;;;;;;;5073316;28;20336;-74
2022/04/15 07:35:19;;;;;;;;;;;;;;;;;;5091617;28;20002;-74
2022/04/15 07:37:45;;;;;;;;;;;;;;;;;;5091907;28;19912;-75
2022/04/15 07:40:11;;;;;;;;;;;;;;;;;;5091690;28;19916;-74
2022/04/15 07:42:37;;;;;;;;;;;;;;;;;;5073458;28;20279;-73
2022/04/15 07:45:03;;;;;;;;;;;;;;;;;;5073377;28;20006;-73
2022/04/15 07:47:29;;;;;;;;;;;;;;;;;;5073556;28;19923;-73
2022/04/15 07:49:55;;;;;;;;;;;;;;;;;;5072930;28;19916;-73
2022/04/15 07:52:21;;;;;;;;;;;;;;;;;;5073165;28;19918;-73
2022/04/15 07:54:48;;;;;;;;;;;;;;;;;;5072802;28;19998;-71
2022/04/15 07:57:16;;;;;;;;;;;;;;;;;;5091246;28;19912;-71
2022/04/15 07:59:42;;;;;;;;;;;;;;;;;;5091404;28;20440;-72
2022/04/15 08:02:09;;;;;;;;;;;;;;;;;;5091099;28;19951;-72
2022/04/15 08:04:37;;;;;;;;;;;;;;;;;;5091084;28;20390;-73
2022/04/15 08:07:02;;;;;;;;;;;;;;;;;;5076462;28;20391;-74
2022/04/15 08:09:28;;;;;;;;;;;;;;;;;;5095038;28;19908;-73
2022/04/15 08:11:54;;;;;;;;;;;;;;;;;;5076741;28;20395;-74
2022/04/15 08:14:20;;;;;;;;;;;;;;;;;;5094960;28;19918;-73
2022/04/15 08:16:46;;;;;;;;;;;;;;;;;;5095117;28;20280;-74
2022/04/15 08:19:12;;;;;;;;;;;;;;;;;;5076514;28;19919;-73
2022/04/15 08:21:38;;;;;;;;;;;;;;;;;;5094932;28;20011;-72
2022/04/15 08:24:04;;;;;;;;;;;;;;;;;;5094758;28;19934;-72
2022/04/15 08:26:30;;;;;;;;;;;;;;;;;;5094559;28;19920;-70
2022/04/15 08:28:56;;;;;;;;;;;;;;;;;;5094583;28;19919;-72
2022/04/15 08:31:22;;;;;;;;;;;;;;;;;;5094679;28;20025;-72
2022/04/15 08:33:48;;;;;;;;;;;;;;;;;;5076364;28;20264;-71
2022/04/15 08:36:14;;;;;;;;;;;;;;;;;;5076207;28;19919;-71
2022/04/15 08:38:39;;;;;;;;;;;;;;;;;;5076032;28;19967;-70
2022/04/15 08:41:06;;;;;;;;;;;;;;;;;;5094344;28;20009;-71
2022/04/15 08:43:31;;;;;;;;;;;;;;;;;;5076259;28;20304;-71
2022/04/15 08:45:57;;;;;;;;;;;;;;;;;;5094234;28;19994;-71
2022/04/15 08:48:23;;;;;;;;;;;;;;;;;;5076095;28;19919;-72
2022/04/15 08:50:50;;;;;;;;;;;;;;;;;;5076137;28;19920;-71
2022/04/15 08:53:17;;;;;;;;;;;;;;;;;;5076081;28;19970;-71
2022/04/15 08:55:43;;;;;;;;;;;;;;;;;;5093899;28;19905;-71
2022/04/15 08:58:08;;;;;;;;;;;;;;;;;;5093806;28;19962;-71
2022/04/15 09:00:34;;;;;;;;;;;;;;;;;;5093693;28;19915;-70
2022/04/15 09:03:03;;;;;;;;;;;;;;;;;;5094299;28;20370;-71
2022/04/15 09:05:29;;;;;;;;;;;;;;;;;;5094046;28;19912;-69
2022/04/15 09:07:55;;;;;;;;;;;;;;;;;;5093918;28;19920;-70
2022/04/15 09:10:21;;;;;;;;;;;;;;;;;;5093892;28;19920;-71
2022/04/15 09:12:47;;;;;;;;;;;;;;;;;;5094317;28;20374;-70
2022/04/15 09:15:13;;;;;;;;;;;;;;;;;;5093903;28;19913;-70
2022/04/15 09:17:39;;;;;;;;;;;;;;;;;;5093212;28;20366;-71
2022/04/15 09:20:05;;;;;;;;;;;;;;;;;;5093664;28;20363;-71
2022/04/15 09:22:31;;;;;;;;;;;;;;;;;;5093990;28;19951;-72
2022/04/15 09:24:58;;;;;;;;;;;;;;;;;;5094086;28;19918;-72
2022/04/15 09:27:24;;;;;;;;;;;;;;;;;;5093782;28;19912;-72
2022/04/15 09:29:50;;;;;;;;;;;;;;;;;;5093464;28;19923;-73
2022/04/15 09:32:15;;;;;;;;;;;;;;;;;;5093656;28;19912;-72
2022/04/15 09:34:41;;;;;;;;;;;;;;;;;;5093187;28;20371;-72
2022/04/15 09:37:08;;;;;;;;;;;;;;;;;;5093473;28;20010;-72
2022/04/15 09:39:34;;;;;;;;;;;;;;;;;;5092914;28;19913;-70
2022/04/15 09:42:00;;;;;;;;;;;;;;;;;;5074993;28;19916;-72
2022/04/15 09:44:31;;;;;;;;;;;;;;;;;;5093088;28;20325;-73
2022/04/15 09:46:57;;;;;;;;;;;;;;;;;;5093149;28;19919;-72
2022/04/15 09:49:23;;;;;;;;;;;;;;;;;;5093130;28;19916;-74
2022/04/15 09:51:52;;;;;;;;;;;;;;;;;;5092966;28;20393;-73
2022/04/15 09:54:18;;;;;;;;;;;;;;;;;;5074544;28;19912;-73
2022/04/15 09:56:44;;;;;;;;;;;;;;;;;;5092767;28;19923;-72
2022/04/15 09:59:12;;;;;;;;;;;;;;;;;;5074861;28;20002;-73
2022/04/15 10:01:37;;;;;;;;;;;;;;;;;;5093094;28;19924;-72
2022/04/15 10:04:04;;;;;;;;;;;;;;;;;;5075271;28;20348;-72
2022/04/15 10:06:30;;;;;;;;;;;;;;;;;;5092846;28;19978;-73
2022/04/15 10:08:56;;;;;;;;;;;;;;;;;;5092657;28;20392;-73
2022/04/15 10:11:22;;;;;;;;;;;;;;;;;;5092812;28;19912;-73
2022/04/15 10:13:48;;;;;;;;;;;;;;;;;;5092516;28;19966;-72
2022/04/15 10:16:14;;;;;;;;;;;;;;;;;;5074395;28;20423;-72
2022/04/15 10:18:39;;;;;;;;;;;;;;;;;;5092753;28;19966;-73
2022/04/15 10:21:05;;;;;;;;;;;;;;;;;;5092226;28;20252;-73
2022/04/15 10:23:31;;;;;;;;;;;;;;;;;;5074096;28;19913;-73
2022/04/15 10:26:00;;;;;;;;;;;;;;;;;;5092163;28;20014;-72
2022/04/15 10:28:28;;;;;;;;;;;;;;;;;;5073854;28;20382;-73
2022/04/15 10:30:54;;;;;;;;;;;;;;;;;;5092053;28;19914;-73
2022/04/15 10:33:19;;;;;;;;;;;;;;;;;;5092536;28;19960;-73
2022/04/15 10:35:45;;;;;;;;;;;;;;;;;;5073816;28;19961;-72
2022/04/15 10:38:11;;;;;;;;;;;;;;;;;;5073934;28;19912;-72
2022/04/15 10:40:37;;;;;;;;;;;;;;;;;;5097875;28;19946;-70
2022/04/15 10:43:03;;;;;;;;;;;;;;;;;;5088877;28;20264;-70
2022/04/15 10:45:29;;;;;;;;;;;;;;;;;;5108524;28;19923;-68
2022/04/15 10:47:55;;;;;;;;;;;;;;;;;;5100695;28;20355;-69
2022/04/15 10:50:21;;;;;;;;;;;;;;;;;;5089006;28;19989;-68
2022/04/15 10:52:48;;;;;;;;;;;;;;;;;;5096744;28;19955;-73
2022/04/15 10:55:16;;;;;;;;;;;;;;;;;;5100334;28;19923;-72
2022/04/15 10:57:43;;;;;;;;;;;;;;;;;;5092262;28;19954;-72
2022/04/15 11:02:54;;;;;;;;;;;;;;;;;;5112349;28;20105;-71
2022/04/15 11:05:20;;;;;;;;;;;;;;;;;;5112453;28;20436;-72
2022/04/15 11:07:46;;;;;;;;;;;;;;;;;;5112012;28;19927;-73
2022/04/15 11:10:12;;;;;;;;;;;;;;;;;;5112291;28;19958;-72
2022/04/15 11:12:37;;;;;;;;;;;;;;;;;;5093795;28;20010;-72
2022/04/15 11:15:04;;;;;;;;;;;;;;;;;;5112225;28;19919;-71
2022/04/15 11:17:30;;;;;;;;;;;;;;;;;;5112392;28;19911;-72
2022/04/15 11:19:56;;;;;;;;;;;;;;;;;;5111962;28;20056;-72
2022/04/15 11:22:24;;;;;;;;;;;;;;;;;;5112030;28;20006;-72
2022/04/15 11:24:50;;;;;;;;;;;;;;;;;;5093444;28;19955;-72
2022/04/15 11:27:16;;;;;;;;;;;;;;;;;;5111947;28;20370;-73
2022/04/15 11:29:42;;;;;;;;;;;;;;;;;;5111643;28;19911;-72
2022/04/15 11:32:08;;;;;;;;;;;;;;;;;;5111716;28;20355;-72
2022/04/15 11:34:34;;;;;;;;;;;;;;;;;;5111789;28;19929;-71
2022/04/15 11:37:00;;;;;;;;;;;;;;;;;;5093197;28;19937;-71
2022/04/15 11:39:26;;;;;;;;;;;;;;;;;;5111751;28;19912;-72
2022/04/15 11:41:55;;;;;;;;;;;;;;;;;;5115437;28;19923;-73
2022/04/15 11:44:21;;;;;;;;;;;;;;;;;;5116044;28;19912;-73
2022/04/15 11:46:47;;;;;;;;;;;;;;;;;;5116212;28;19919;-73
2022/04/15 11:49:13;;;;;;;;;;;;;;;;;;5097628;28;19919;-73
2022/04/15 11:51:39;;;;;;;;;;;;;;;;;;5115846;28;19916;-73
2022/04/15 11:54:05;;;;;;;;;;;;;;;;;;5115913;28;20381;-73
2022/04/15 11:56:31;;;;;;;;;;;;;;;;;;5115801;28;19916;-73
2022/04/15 11:58:57;;;;;;;;;;;;;;;;;;5115597;28;19918;-73
2022/04/15 12:01:23;;;;;;;;;;;;;;;;;;5097014;28;19924;-73
2022/04/15 12:03:48;;;;;;;;;;;;;;;;;;5115391;28;20265;-73
2022/04/15 12:06:14;;;;;;;;;;;;;;;;;;5115546;28;19919;-72
2022/04/15 12:08:41;;;;;;;;;;;;;;;;;;5115195;28;20006;-73
2022/04/15 12:11:07;;;;;;;;;;;;;;;;;;5097316;28;20396;-72
2022/04/15 12:13:33;;;;;;;;;;;;;;;;;;5115273;28;20253;-73
2022/04/15 12:15:59;;;;;;;;;;;;;;;;;;5115326;28;19916;-73
2022/04/15 12:18:25;;;;;;;;;;;;;;;;;;5115327;28;19911;-72
2022/04/15 12:20:51;;;;;;;;;;;;;;;;;;5115054;28;19955;-72
2022/04/15 12:23:17;;;;;;;;;;;;;;;;;;5115266;28;19919;-73
2022/04/15 12:31:17;;;;;;;;;;;;;;;;;;5106897;28;19915;-72
2022/04/15 12:33:43;;;;;;;;;;;;;;;;;;5114872;28;19912;-73
2022/04/15 12:36:09;;;;;;;;;;;;;;;;;;5114975;28;19908;-74
2022/04/15 12:38:35;;;;;;;;;;;;;;;;;;5114805;28;19947;-73
2022/04/15 12:41:00;;;;;;;;;;;;;;;;;;5114765;28;19955;-73
2022/04/15 12:43:26;;;;;;;;;;;;;;;;;;5114702;28;19912;-72
2022/04/15 12:45:53;;;;;;;;;;;;;;;;;;5114585;28;19904;-73
2022/04/15 12:48:19;;;;;;;;;;;;;;;;;;5114543;28;19912;-72
2022/04/15 12:50:44;;;;;;;;;;;;;;;;;;5096371;28;19958;-73
2022/04/15 12:53:10;;;;;;;;;;;;;;;;;;5113315;28;19951;-72
2022/04/15 12:55:36;;;;;;;;;;;;;;;;;;5114845;28;19950;-72
2022/04/15 12:58:02;;;;;;;;;;;;;;;;;;5114929;28;20418;-73
2022/04/15 13:00:28;;;;;;;;;;;;;;;;;;5114347;28;20032;-73
2022/04/15 13:02:54;;;;;;;;;;;;;;;;;;5114730;28;19919;-73
2022/04/15 13:05:20;;;;;;;;;;;;;;;;;;5114285;28;19938;-74
2022/04/15 13:07:49;;;;;;;;;;;;;;;;;;5113817;28;19926;-73
2022/04/15 13:10:14;;;;;;;;;;;;;;;;;;5114139;28;19919;-73
2022/04/15 13:12:40;;;;;;;;;;;;;;;;;;5114512;28;19912;-74
2022/04/15 13:15:06;;;;;;;;;;;;;;;;;;5114100;28;19911;-74
2022/04/15 13:17:32;;;;;;;;;;;;;;;;;;5113936;28;20459;-73
2022/04/15 13:19:58;;;;;;;;;;;;;;;;;;5114258;28;19998;-72
2022/04/15 13:22:24;;;;;;;;;;;;;;;;;;5114352;28;20090;-72
2022/04/15 13:24:51;;;;;;;;;;;;;;;;;;5113852;28;20006;-73
2022/04/15 13:27:17;;;;;;;;;;;;;;;;;;5114299;28;19912;-73
2022/04/15 13:29:45;;;;;;;;;;;;;;;;;;5095809;28;19934;-72
2022/04/15 13:32:12;;;;;;;;;;;;;;;;;;5114185;28;19955;-72
2022/04/15 13:34:37;;;;;;;;;;;;;;;;;;5095275;28;19919;-71
2022/04/15 13:37:03;;;;;;;;;;;;;;;;;;5095438;28;19912;-72
2022/04/15 13:39:29;;;;;;;;;;;;;;;;;;5113591;28;19919;-72
2022/04/15 13:41:55;;;;;;;;;;;;;;;;;;5113834;28;19972;-72
2022/04/15 13:44:21;;;;;;;;;;;;;;;;;;5095057;28;19912;-72
2022/04/15 13:46:47;;;;;;;;;;;;;;;;;;5113695;28;19966;-72
2022/04/15 13:49:13;;;;;;;;;;;;;;;;;;5095181;28;20008;-72
2022/04/15 13:51:39;;;;;;;;;;;;;;;;;;5113506;28;20480;-72
2022/04/15 13:56:49;;;;;;;;;;;;;;;;;;5113689;28;19923;-72
2022/04/15 13:59:15;;;;;;;;;;;;;;;;;;5094739;28;19923;-73
2022/04/15 14:01:41;;;;;;;;;;;;;;;;;;5113286;28;19916;-72
2022/04/15 14:04:08;;;;;;;;;;;;;;;;;;5112728;28;19973;-72
2022/04/15 14:06:34;;;;;;;;;;;;;;;;;;5113371;28;19912;-73
2022/04/15 14:09:00;;;;;;;;;;;;;;;;;;5112823;28;20285;-73
2022/04/15 14:11:26;;;;;;;;;;;;;;;;;;5094930;28;20031;-73
2022/04/15 14:13:52;;;;;;;;;;;;;;;;;;5112992;28;19916;-73
2022/04/15 14:16:18;;;;;;;;;;;7.20;99.90;;;;;;5110649;28;19916;-70
2022/04/15 14:18:44;;;;;;;;;;;20.80;54.20;;;;;;5111157;28;19972;-72
2022/04/15 14:21:09;;;;;;;;;;;20.70;54.80;;;;;;5112959;28;19915;-73
2022/04/15 14:23:35;;;;;;;;;;;20.60;54.30;;;;;;5094673;28;19912;-72
2022/04/15 14:26:01;;;;;;;;;;;20.60;53.80;;;;;;5111643;28;19907;-73
2022/04/15 14:28:27;;;;;;;;;;;20.60;54.20;;;;;;5112548;28;20403;-73
2022/04/15 14:30:53;;;;;;;;;;;20.60;53.70;;;;;;5112851;28;19916;-74
2022/04/15 14:33:19;;;;;;;;;;;20.50;53.60;;;;;;5112558;28;20295;-73
2022/04/15 14:35:44;;;;;;;;;;;20.40;53.80;;;;;;5112553;28;19939;-73
2022/04/15 14:38:10;;;;;;;;;;;20.40;53.80;;;;;;5094504;28;19911;-73
2022/04/15 14:40:36;;;;;;;;;;;20.50;54.00;;;;;;5094058;28;19988;-73
2022/04/15 14:43:02;;;;;;;;;;;20.60;53.90;;;;;;5112892;28;20402;-73
2022/04/15 14:45:27;;;;;;;;;;;20.70;53.60;;;;;;5112120;28;20049;-73
2022/04/15 14:47:53;;;;;;;;;;;20.70;53.60;;;;;;5112874;28;19912;-73
2022/04/15 14:50:18;;;;;;;;;;;20.70;53.50;;;;;;5093925;28;19916;-73
2022/04/15 14:52:44;;;;;;;;;;;20.70;53.50;;;;;;5094207;28;20270;-73
2022/04/15 14:55:11;;;;;;;;;;;20.60;53.50;;;;;;5112223;28;19916;-73
2022/04/15 14:57:36;;;;;;;;;;;20.60;53.20;;;;;;5093547;28;20363;-73
2022/04/15 15:00:04;;;;;;;;;;;20.60;53.30;;;;;;5112044;28;20007;-75
2022/04/15 15:02:30;;;;;;;;;;;20.40;53.50;;;;;;5093939;28;19919;-74
2022/04/15 15:04:56;;;;;;;;;;;20.40;54.10;;;;;;5093725;28;19919;-73
2022/04/15 15:07:21;;;;;;;;;;;20.50;53.60;;;;;;5112224;28;19922;-73
2022/04/15 15:09:46;;;;;;;;;;;20.40;53.60;;;;;;5112055;28;19911;-73
2022/04/15 15:12:12;;;;;;;;;;;20.40;53.80;;;;;;5093835;28;19912;-72
2022/04/15 15:14:38;;;;;;;;;;;20.40;54.00;;;;;;5093388;28;20346;-73
2022/04/15 15:17:04;;;;;;;;;;;20.30;54.30;;;;;;5111792;28;19999;-73
2022/04/15 15:19:29;;;;;;;;;;;20.20;54.10;;;;;;5111957;28;19920;-73
2022/04/15 15:21:55;;;;;;;;;;;20.30;54.10;;;;;;5111964;28;19972;-73
2022/04/15 15:29:49;;;;;;;;;;;20.30;54.00;;;;;;5112093;28;19919;-73
2022/04/15 15:32:15;;;;;;;;;;;20.40;54.10;;;;;;5112148;28;20290;-73
2022/04/15 15:34:41;;;;;;;;;;;20.30;53.90;;;;;;5093320;28;20018;-73
2022/04/15 15:37:06;;;;;;;;;;;20.30;54.10;;;;;;5111907;28;20493;-73
2022/04/15 15:39:32;;;;;;;;;;;20.20;54.70;;;;;;5111806;28;19913;-73
2022/04/15 15:41:57;;;;;;;;;;;20.20;54.30;;;;;;5111739;28;20321;-73
2022/04/15 15:44:23;;;;;;;;;;;20.10;54.40;;;;;;5111658;28;19912;-73
2022/04/15 15:46:48;;;;;;;;;;;20.10;54.60;;;;;;5093212;28;19963;-74
2022/04/15 15:49:14;;;;;;;;;;;20.00;54.30;;;;;;5111518;28;19965;-73
2022/04/15 15:51:39;;;;;;;;;;;20.00;54.40;;;;;;5092955;28;19964;-73
2022/04/15 15:54:06;;;;;;;;;;;19.90;54.60;;;;;;5093212;28;19923;-73
2022/04/15 15:56:32;;;;;;;;;;;19.90;54.80;;;;;;5111960;28;20000;-73
2022/04/15 15:58:57;;;;;;;;;;;19.80;54.90;;;;;;5111958;28;19966;-73
2022/04/15 16:01:24;;;;;;;;;;;19.80;55.10;;;;;;5092975;28;19920;-73
2022/04/15 16:03:50;;;;;;;;;;;19.80;55.10;;;;;;5093281;28;19928;-73
2022/04/15 16:06:17;;;;;;;;;;;19.80;54.90;;;;;;5093006;28;19912;-73
2022/04/15 16:08:43;;;;;;;;;;;19.70;55.00;;;;;;5111133;28;20343;-74
2022/04/15 16:11:08;;;;;;;;;;;19.70;55.10;;;;;;5111443;28;20006;-73
2022/04/15 16:13:34;;;;;;;;;;;19.60;55.30;;;;;;5093274;28;19918;-73
2022/04/15 16:15:59;;;;;;;;;;;19.50;55.60;;;;;;5111268;28;19942;-74
2022/04/15 16:18:25;;;;;;;;;;;19.50;55.30;;;;;;5111347;28;19912;-73
2022/04/15 16:20:50;;;;;;;;;;;19.50;55.40;;;;;;5092724;28;19911;-73
2022/04/15 16:23:16;;;;;;;;;;;19.50;55.60;;;;;;5111357;28;19915;-74
2022/04/15 16:25:41;;;;;;;;;;;19.40;55.80;;;;;;5111260;28;19908;-73
2022/04/15 16:28:07;;;;;;;;;;;19.40;55.80;;;;;;5115532;28;19911;-73
2022/04/15 16:30:34;;;;;;;;;;;19.30;55.80;;;;;;5115057;28;19916;-73